Time;durP1;ratioP1;P1;durP2;ratioP2;P2;SDS_P1;SDS_P2;PMS_P1;PMS_P2;Temp;Humidity;BMP_temperature;BMP_pressure;BME280_temperature;BME280_humidity;BME280_pressure;Samples;Min_cycle;Max_cycle;Signal;HPM_P1;HPM_P2
2023/10/08 00:00:55;;;;;;;2.70;0.80;;;14.50;99.90;;;;;;5103547;27;20092;-66
2023/10/08 00:03:21;;;;;;;1.08;0.73;;;14.40;99.90;;;;;;5134434;27;20111;-66
2023/10/08 00:05:49;;;;;;;1.23;0.75;;;14.30;99.90;;;;;;5104413;27;20155;-66
2023/10/08 00:08:16;;;;;;;1.83;0.90;;;14.30;99.90;;;;;;5104199;27;20054;-66
2023/10/08 00:10:44;;;;;;;2.33;1.15;;;14.20;99.90;;;;;;5103304;27;20837;-66
2023/10/08 00:13:15;;;;;;;3.20;1.30;;;14.20;99.90;;;;;;5104631;27;20046;-66
2023/10/08 00:15:55;;;;;;;2.72;1.20;;;14.20;99.90;;;;;;5108870;27;20032;-66
2023/10/08 00:18:22;;;;;;;2.35;0.85;;;14.10;99.90;;;;;;5134459;27;20226;-66
2023/10/08 00:20:58;;;;;;;3.40;1.40;;;14.10;99.90;;;;;;5101087;28;20043;-66
2023/10/08 00:23:25;;;;;;;1.60;0.85;;;14.10;99.90;;;;;;5105484;27;20119;-66
2023/10/08 00:25:54;;;;;;;1.75;1.15;;;14.00;99.90;;;;;;5103212;27;20069;-66
2023/10/08 00:28:24;;;;;;;2.13;0.70;;;14.00;99.90;;;;;;5105792;28;20047;-66
2023/10/08 00:30:50;;;;;;;1.33;0.57;;;14.10;99.90;;;;;;5104434;27;20043;-66
2023/10/08 00:33:16;;;;;;;1.17;0.43;;;14.00;99.90;;;;;;5101618;28;20092;-66
2023/10/08 00:35:42;;;;;;;2.28;0.43;;;14.00;99.90;;;;;;5104642;28;20045;-66
2023/10/08 00:38:14;;;;;;;2.67;0.52;;;13.90;99.90;;;;;;5104992;27;20032;-66
2023/10/08 00:40:46;;;;;;;0.40;0.20;;;13.90;99.90;;;;;;5101848;28;20498;-66
2023/10/08 00:43:36;;;;;;;1.70;0.20;;;13.90;99.90;;;;;;5103230;28;20028;-66
2023/10/08 00:46:18;;;;;;;1.50;0.25;;;13.90;99.90;;;;;;5103331;28;20035;-66
2023/10/08 00:48:45;;;;;;;0.55;0.10;;;13.90;99.90;;;;;;5103340;28;20043;-66
2023/10/08 00:53:50;;;;;;;2.17;0.10;;;13.90;99.90;;;;;;5131395;27;20131;-66
2023/10/08 00:56:19;;;;;;;0.57;0.20;;;13.80;99.90;;;;;;5109180;27;20366;-66
2023/10/08 00:58:52;;;;;;;0.32;0.10;;;13.80;99.90;;;;;;5104999;28;20054;-66
2023/10/08 01:01:20;;;;;;;0.68;0.15;;;13.80;99.90;;;;;;5103983;28;20043;-66
2023/10/08 01:03:49;;;;;;;0.55;0.30;;;13.80;99.90;;;;;;5103228;27;20497;-66
2023/10/08 01:06:18;;;;;;;0.57;0.20;;;13.70;99.90;;;;;;5101575;27;20051;-66
2023/10/08 01:08:52;;;;;;;0.32;0.20;;;13.70;99.90;;;;;;5132593;27;20044;-66
2023/10/08 01:11:45;;;;;;;0.75;0.30;;;13.70;99.90;;;;;;5106965;28;20047;-66
2023/10/08 01:14:11;;;;;;;0.70;0.28;;;13.70;99.90;;;;;;5136257;27;20118;-66
2023/10/08 01:16:36;;;;;;;0.80;0.30;;;13.70;99.90;;;;;;5102175;28;20115;-66
2023/10/08 01:19:02;;;;;;;0.70;0.20;;;13.60;99.90;;;;;;5102146;28;20035;-66
2023/10/08 01:21:34;;;;;;;1.42;0.20;;;13.60;99.90;;;;;;5103971;27;20508;-66
2023/10/08 01:24:02;;;;;;;1.92;0.20;;;13.60;99.90;;;;;;5102827;28;20070;-66
2023/10/08 01:26:31;;;;;;;1.20;0.13;;;13.50;99.90;;;;;;5105573;27;20040;-66
2023/10/08 01:28:57;;;;;;;0.57;0.10;;;13.50;99.90;;;;;;5104393;27;20258;-66
2023/10/08 01:31:23;;;;;;;0.90;0.15;;;13.50;99.90;;;;;;5108067;27;20036;-66
2023/10/08 01:33:50;;;;;;;0.32;0.10;;;13.50;99.90;;;;;;5100796;28;20409;-66
2023/10/08 01:36:16;;;;;;;0.90;0.20;;;13.50;99.90;;;;;;5101261;28;20062;-66
2023/10/08 01:38:41;;;;;;;0.95;0.10;;;13.50;99.90;;;;;;5101294;28;20043;-66
2023/10/08 01:41:25;;;;;;;0.93;0.10;;;13.50;99.90;;;;;;5107150;27;20078;-66
2023/10/08 01:43:52;;;;;;;0.90;0.20;;;13.40;99.90;;;;;;5104636;27;20040;-66
2023/10/08 01:46:21;;;;;;;0.45;0.20;;;13.50;99.90;;;;;;5099281;28;20040;-66
2023/10/08 01:48:53;;;;;;;0.82;0.38;;;13.50;99.90;;;;;;5104330;27;20040;-66
2023/10/08 01:51:24;;;;;;;0.35;0.10;;;13.50;99.90;;;;;;5099632;28;20149;-66
2023/10/08 01:53:55;;;;;;;2.15;0.20;;;13.50;99.90;;;;;;5105138;27;20035;-66
2023/10/08 01:56:20;;;;;;;1.23;0.20;;;13.50;99.90;;;;;;5103578;27;20036;-66
2023/10/08 01:58:46;;;;;;;0.70;0.20;;;13.50;99.90;;;;;;5132691;27;20097;-66
2023/10/08 02:01:13;;;;;;;0.40;0.10;;;13.50;99.90;;;;;;5130915;27;20039;-66
2023/10/08 02:03:38;;;;;;;0.95;0.10;;;13.50;99.90;;;;;;5105466;28;20044;-66
2023/10/08 02:06:06;;;;;;;0.73;0.10;;;13.50;99.90;;;;;;5106708;28;20039;-66
2023/10/08 02:08:31;;;;;;;1.38;0.43;;;13.60;99.90;;;;;;5103630;27;20058;-66
2023/10/08 02:10:57;;;;;;;0.73;0.10;;;13.50;99.90;;;;;;5100428;28;20575;-66
2023/10/08 02:13:23;;;;;;;0.30;0.00;;;13.50;99.90;;;;;;5103217;28;20175;-66
2023/10/08 02:15:52;;;;;;;0.82;0.00;;;13.50;99.90;;;;;;5103314;28;20039;-66
2023/10/08 02:18:18;;;;;;;0.75;0.00;;;13.50;99.90;;;;;;5129203;27;20040;-66
2023/10/08 02:20:45;;;;;;;2.60;0.20;;;13.50;99.90;;;;;;5099935;28;20044;-66
2023/10/08 02:23:11;;;;;;;0.20;0.10;;;13.50;99.90;;;;;;5103547;28;20405;-66
2023/10/08 02:25:39;;;;;;;0.47;0.10;;;13.50;99.90;;;;;;5104375;28;20055;-66
2023/10/08 02:28:09;;;;;;;0.28;0.00;;;13.50;99.90;;;;;;5116519;27;20132;-66
2023/10/08 02:30:38;;;;;;;0.60;0.00;;;13.50;99.90;;;;;;5102999;28;20092;-66
2023/10/08 02:33:13;;;;;;;0.38;0.03;;;13.50;99.90;;;;;;5102750;28;20526;-66
2023/10/08 02:35:40;;;;;;;0.55;0.00;;;13.50;99.90;;;;;;5104664;28;20129;-66
2023/10/08 02:38:09;;;;;;;1.27;0.22;;;13.50;99.90;;;;;;5101102;28;20431;-66
2023/10/08 02:40:37;;;;;;;0.28;0.10;;;13.50;99.90;;;;;;5135758;27;20036;-66
2023/10/08 02:43:07;;;;;;;0.90;0.20;;;13.50;99.90;;;;;;5103609;28;20039;-66
2023/10/08 02:45:37;;;;;;;0.70;0.17;;;13.50;99.90;;;;;;5100557;28;20095;-66
2023/10/08 02:48:04;;;;;;;2.05;0.47;;;13.50;99.90;;;;;;5131272;27;20150;-66
2023/10/08 02:50:29;;;;;;;1.50;0.22;;;13.50;99.90;;;;;;5102009;28;20027;-66
2023/10/08 02:53:02;;;;;;;1.42;0.30;;;13.50;99.90;;;;;;5106182;28;20042;-66
2023/10/08 02:55:34;;;;;;;0.65;0.17;;;13.50;99.90;;;;;;5101090;28;20052;-66
2023/10/08 02:58:02;;;;;;;1.02;0.20;;;13.50;99.90;;;;;;5100814;28;20040;-66
2023/10/08 03:00:34;;;;;;;1.75;0.20;;;13.50;99.90;;;;;;5099956;28;20043;-66
2023/10/08 03:03:09;;;;;;;1.38;0.40;;;13.50;99.90;;;;;;5088331;28;20055;-66
2023/10/08 03:05:56;;;;;;;3.45;0.20;;;13.50;99.90;;;;;;5101055;28;20097;-66
2023/10/08 03:08:23;;;;;;;1.85;0.20;;;13.50;99.90;;;;;;5101583;28;20043;-66
2023/10/08 03:10:55;;;;;;;2.40;0.30;;;13.50;99.90;;;;;;5137897;27;20047;-66
2023/10/08 03:13:22;;;;;;;1.77;0.50;;;13.50;99.90;;;;;;5103551;28;20065;-66
2023/10/08 03:18:36;;;;;;;1.50;0.50;;;13.40;99.90;;;;;;5105975;28;20050;-66
2023/10/08 03:21:19;;;;;;;2.03;0.40;;;13.50;99.90;;;;;;5104760;28;20048;-66
2023/10/08 03:23:50;;;;;;;6.63;0.45;;;13.50;99.90;;;;;;5107747;27;20039;-66
2023/10/08 03:28:57;;;;;;;1.55;0.40;;;13.40;99.90;;;;;;5136376;27;20138;-66
2023/10/08 03:31:44;;;;;;;2.80;0.50;;;13.40;99.90;;;;;;5104786;27;20043;-66
2023/10/08 03:34:14;;;;;;;1.15;0.40;;;13.30;99.90;;;;;;5111474;27;20058;-66
2023/10/08 03:36:44;;;;;;;0.60;0.47;;;13.30;99.90;;;;;;5105133;27;20040;-66
2023/10/08 03:39:14;;;;;;;2.90;0.60;;;13.30;99.90;;;;;;5106597;27;20044;-66
2023/10/08 03:41:51;;;;;;;1.58;0.47;;;13.30;99.90;;;;;;5108959;27;20047;-66
2023/10/08 03:44:17;;;;;;;3.13;0.75;;;13.40;99.90;;;;;;5108058;27;20046;-66
2023/10/08 03:46:43;;;;;;;2.60;0.50;;;13.30;99.90;;;;;;5104175;27;20080;-66
2023/10/08 03:51:51;;;;;;;1.45;0.50;;;13.30;99.90;;;;;;5105611;27;20525;-66
2023/10/08 03:54:30;;;;;;;3.42;0.43;;;13.30;99.90;;;;;;5106574;28;20035;-66
2023/10/08 03:56:56;;;;;;;5.43;0.57;;;13.30;99.90;;;;;;5103315;28;20375;-66
2023/10/08 04:01:54;;;;;;;4.15;0.50;;;13.30;99.90;;;;;;5105759;28;20052;-66
2023/10/08 04:04:30;;;;;;;1.40;0.40;;;13.30;99.90;;;;;;5107153;28;20501;-66
2023/10/08 04:07:09;;;;;;;0.70;0.30;;;13.30;99.90;;;;;;5105878;27;20036;-66
2023/10/08 04:09:39;;;;;;;2.97;0.60;;;13.30;99.90;;;;;;5133625;27;20490;-66
2023/10/08 04:12:10;;;;;;;1.48;0.50;;;13.30;99.90;;;;;;5103950;28;20044;-66
2023/10/08 04:14:36;;;;;;;2.17;0.30;;;13.30;99.90;;;;;;5104879;27;20070;-66
2023/10/08 04:17:02;;;;;;;1.77;0.30;;;13.30;99.90;;;;;;5088687;27;20066;-66
2023/10/08 04:19:29;;;;;;;3.17;0.40;;;13.30;99.90;;;;;;5102174;27;20047;-66
2023/10/08 04:21:56;;;;;;;2.08;0.30;;;13.30;99.90;;;;;;5105890;27;20134;-66
2023/10/08 04:24:28;;;;;;;2.80;0.77;;;13.30;99.90;;;;;;5105874;28;20490;-66
2023/10/08 04:26:58;;;;;;;1.60;0.25;;;13.60;99.90;;;;;;5108930;28;20048;-66
2023/10/08 04:29:25;;;;;;;4.57;0.60;;;13.30;99.90;;;;;;5106576;27;20036;-66
2023/10/08 04:32:07;;;;;;;2.90;0.60;;;13.30;99.90;;;;;;5134213;27;20044;-66
2023/10/08 04:34:36;;;;;;;1.70;0.20;;;13.30;99.90;;;;;;5105974;28;20047;-66
2023/10/08 04:37:04;;;;;;;1.70;0.30;;;13.30;99.90;;;;;;5105818;27;20036;-66
2023/10/08 04:39:33;;;;;;;1.95;0.30;;;13.30;99.90;;;;;;5134149;27;20128;-66
2023/10/08 04:42:06;;;;;;;3.20;0.57;;;13.30;99.90;;;;;;5130791;27;20075;-66
2023/10/08 04:44:32;;;;;;;1.27;0.13;;;13.30;99.90;;;;;;5104430;27;20509;-66
2023/10/08 04:47:04;;;;;;;1.75;0.30;;;13.30;99.90;;;;;;5103645;28;20031;-66
2023/10/08 04:49:32;;;;;;;1.65;0.25;;;13.30;99.90;;;;;;5103510;27;20367;-66
2023/10/08 04:52:14;;;;;;;0.95;0.20;;;13.30;99.90;;;;;;5104744;27;20035;-66
2023/10/08 04:54:41;;;;;;;1.92;0.30;;;13.30;99.90;;;;;;5101713;28;20036;-66
2023/10/08 04:57:15;;;;;;;0.73;0.10;;;13.30;99.90;;;;;;5104048;27;20046;-66
2023/10/08 04:59:42;;;;;;;1.15;0.20;;;13.30;99.90;;;;;;5103207;27;20054;-66
2023/10/08 05:02:33;;;;;;;1.77;0.22;;;13.30;99.90;;;;;;5102733;27;22027;-66
2023/10/08 05:13:01;;;;;;;1.23;0.20;;;13.30;99.90;;;;;;5104373;28;20493;-66
2023/10/08 05:15:33;;;;;;;2.47;0.40;;;13.20;99.90;;;;;;5103901;27;20081;-66
2023/10/08 05:18:13;;;;;;;4.82;0.40;;;13.30;99.90;;;;;;5103704;27;20040;-66
2023/10/08 05:23:42;;;;;;;1.48;0.22;;;13.20;99.90;;;;;;5135119;27;20082;-66
2023/10/08 05:39:40;;;;;;;1.30;0.35;;;13.30;99.90;;;;;;5083911;28;20043;-66
2023/10/08 05:45:29;;;;;;;2.28;0.30;;;13.30;99.90;;;;;;5136144;27;20147;-66
2023/10/08 05:53:01;;;;;;;2.30;0.40;;;13.30;99.90;;;;;;5103645;27;20071;-66
2023/10/08 05:55:35;;;;;;;1.50;0.20;;;13.30;99.90;;;;;;5102368;27;20055;-66
2023/10/08 05:58:13;;;;;;;1.67;0.15;;;13.30;99.90;;;;;;5103202;27;20039;-66
2023/10/08 06:01:01;;;;;;;1.25;0.20;;;13.30;99.90;;;;;;5133847;27;20043;-66
2023/10/08 06:03:35;;;;;;;1.80;0.30;;;13.30;99.90;;;;;;5133325;27;20040;-66
2023/10/08 06:09:04;;;;;;;3.78;0.82;;;13.30;99.90;;;;;;5102723;28;20486;-66
2023/10/08 06:11:41;;;;;;;1.48;0.30;;;13.30;99.90;;;;;;5099541;28;20075;-66
2023/10/08 06:14:13;;;;;;;4.70;0.43;;;13.30;99.90;;;;;;5098200;28;20031;-66
2023/10/08 06:16:44;;;;;;;7.55;0.30;;;13.30;99.90;;;;;;5103487;28;20043;-66
2023/10/08 06:19:14;;;;;;;2.65;0.40;;;13.30;99.90;;;;;;5100890;28;20043;-66
2023/10/08 06:21:41;;;;;;;3.22;0.50;;;13.30;99.90;;;;;;5102257;28;20077;-66
2023/10/08 06:24:16;;;;;;;2.17;0.43;;;13.40;99.90;;;;;;5118388;27;20044;-66
2023/10/08 06:26:42;;;;;;;5.55;0.50;;;13.40;99.90;;;;;;5102727;28;20048;-66
2023/10/08 06:29:27;;;;;;;2.63;0.57;;;13.40;99.90;;;;;;5104085;28;20046;-66
2023/10/08 06:32:02;;;;;;;3.03;0.50;;;13.40;99.90;;;;;;5108495;27;20469;-67
2023/10/08 06:34:28;;;;;;;2.05;0.40;;;13.50;99.90;;;;;;5087508;28;20126;-66
2023/10/08 06:36:57;;;;;;;1.75;0.45;;;13.50;99.90;;;;;;5106116;28;20550;-66
2023/10/08 06:39:33;;;;;;;1.95;0.50;;;13.50;99.90;;;;;;5101942;28;20035;-66
2023/10/08 06:41:59;;;;;;;7.57;1.10;;;13.50;99.90;;;;;;5100260;28;20087;-66
2023/10/08 06:44:27;;;;;;;2.05;0.50;;;13.50;99.90;;;;;;5106972;27;20431;-66
2023/10/08 06:46:54;;;;;;;1.00;0.32;;;13.60;99.90;;;;;;5104343;27;20496;-66
2023/10/08 06:49:23;;;;;;;1.95;0.60;;;13.60;99.90;;;;;;5103788;28;20271;-66
2023/10/08 06:51:50;;;;;;;2.08;0.43;;;13.70;99.90;;;;;;5104977;27;20393;-66
2023/10/08 06:54:17;;;;;;;1.20;0.60;;;13.70;99.90;;;;;;5107685;27;20040;-66
2023/10/08 06:56:46;;;;;;;1.85;0.60;;;13.80;99.90;;;;;;5104166;28;20151;-66
2023/10/08 06:59:18;;;;;;;2.53;0.40;;;13.80;99.90;;;;;;5107349;28;20062;-66
2023/10/08 07:01:47;;;;;;;2.67;0.43;;;13.80;99.90;;;;;;5106412;28;20129;-66
2023/10/08 07:04:13;;;;;;;1.40;0.40;;;13.80;99.90;;;;;;5103894;27;20043;-66
2023/10/08 07:06:40;;;;;;;6.43;1.40;;;13.70;99.90;;;;;;5136171;27;20039;-66
2023/10/08 07:09:13;;;;;;;4.72;0.80;;;13.90;99.90;;;;;;5104475;28;20051;-66
2023/10/08 07:11:44;;;;;;;1.58;0.70;;;13.80;99.90;;;;;;5107069;28;20180;-66
2023/10/08 07:14:10;;;;;;;2.00;0.80;;;13.90;99.90;;;;;;5090889;28;20035;-66
2023/10/08 07:16:36;;;;;;;1.25;0.40;;;13.90;99.90;;;;;;5102628;28;20040;-66
2023/10/08 07:19:04;;;;;;;4.65;1.00;;;13.90;99.90;;;;;;5103287;28;20043;-66
2023/10/08 07:21:38;;;;;;;4.45;0.70;;;13.90;99.90;;;;;;5103087;28;20051;-66
2023/10/08 07:24:09;;;;;;;5.93;1.30;;;13.90;99.90;;;;;;5105120;27;20043;-66
2023/10/08 07:26:39;;;;;;;6.93;1.38;;;14.00;99.90;;;;;;5104897;27;20073;-66
2023/10/08 07:29:09;;;;;;;2.40;0.95;;;14.00;99.90;;;;;;5101194;27;20105;-66
2023/10/08 07:31:36;;;;;;;3.00;0.60;;;14.10;99.90;;;;;;5101941;28;20043;-66
2023/10/08 07:34:15;;;;;;;3.17;0.65;;;14.10;99.90;;;;;;5106021;27;20832;-66
2023/10/08 07:36:43;;;;;;;4.30;1.05;;;14.20;99.90;;;;;;5105147;27;20032;-66
2023/10/08 07:39:20;;;;;;;3.08;1.02;;;14.20;99.90;;;;;;5103578;27;20047;-66
2023/10/08 07:41:48;;;;;;;2.40;0.40;;;14.20;99.90;;;;;;5105179;27;20051;-66
2023/10/08 07:44:13;;;;;;;3.35;0.50;;;14.20;99.90;;;;;;5108401;27;20054;-66
2023/10/08 07:46:39;;;;;;;5.47;0.80;;;14.20;99.90;;;;;;5100810;27;20043;-66
2023/10/08 07:49:05;;;;;;;1.73;0.52;;;14.20;99.90;;;;;;5106276;27;20052;-66
2023/10/08 07:51:30;;;;;;;2.17;0.43;;;14.30;99.90;;;;;;5104780;27;20054;-66
2023/10/08 07:53:56;;;;;;;3.15;0.75;;;14.30;99.90;;;;;;5103322;27;20045;-66
2023/10/08 07:56:23;;;;;;;3.05;0.45;;;14.30;99.90;;;;;;5105858;27;20066;-67
2023/10/08 07:58:55;;;;;;;3.45;0.60;;;14.30;99.90;;;;;;5107797;27;20563;-67
2023/10/08 08:01:24;;;;;;;5.25;0.73;;;14.40;99.90;;;;;;5103893;27;20481;-66
2023/10/08 08:03:50;;;;;;;2.25;0.60;;;14.40;99.90;;;;;;5108572;27;20127;-66
2023/10/08 08:06:17;;;;;;;1.42;0.57;;;14.50;99.90;;;;;;5103556;28;20084;-66
2023/10/08 08:08:44;;;;;;;4.75;1.10;;;14.40;99.90;;;;;;5106175;28;20147;-66
2023/10/08 08:11:13;;;;;;;4.03;0.80;;;14.50;99.90;;;;;;5102879;28;20074;-66
2023/10/08 08:13:44;;;;;;;5.15;0.95;;;14.50;99.90;;;;;;5107712;28;20035;-66
2023/10/08 08:16:16;;;;;;;2.20;0.38;;;14.50;99.90;;;;;;5103446;28;20166;-66
2023/10/08 08:18:57;;;;;;;6.05;0.85;;;14.60;99.90;;;;;;5104755;28;20509;-66
2023/10/08 08:21:23;;;;;;;4.63;1.58;;;14.60;99.90;;;;;;5102170;27;20052;-66
2023/10/08 08:23:49;;;;;;;5.20;0.82;;;14.80;99.90;;;;;;5104229;27;20097;-66
2023/10/08 08:26:28;;;;;;;8.10;1.10;;;14.70;99.90;;;;;;5102365;28;20047;-66
2023/10/08 08:29:01;;;;;;;2.97;1.00;;;14.80;99.90;;;;;;5104710;27;20885;-66
2023/10/08 08:31:31;;;;;;;3.95;0.50;;;14.90;99.90;;;;;;5103203;27;20044;-66
2023/10/08 08:33:59;;;;;;;4.70;0.80;;;14.90;99.90;;;;;;5106009;28;20091;-66
2023/10/08 08:36:27;;;;;;;6.63;1.02;;;15.00;99.90;;;;;;5103161;27;21044;-66
2023/10/08 08:38:53;;;;;;;3.53;0.63;;;15.00;99.90;;;;;;5101573;27;20048;-66
2023/10/08 08:41:23;;;;;;;9.30;1.25;;;15.10;99.90;;;;;;5102926;27;20100;-66
2023/10/08 08:43:59;;;;;;;4.18;1.05;;;15.10;99.90;;;;;;5105347;27;20055;-66
2023/10/08 08:46:32;;;;;;;6.78;1.52;;;15.20;99.90;;;;;;5105593;27;20046;-66
2023/10/08 08:49:08;;;;;;;2.15;0.43;;;15.30;99.90;;;;;;5107012;27;20035;-66
2023/10/08 08:51:35;;;;;;;5.40;2.40;;;15.30;99.90;;;;;;5103406;27;20032;-66
2023/10/08 08:54:06;;;;;;;3.65;1.20;;;15.40;99.90;;;;;;5136547;27;20477;-66
2023/10/08 08:56:36;;;;;;;4.10;0.98;;;15.50;99.90;;;;;;5119676;27;20035;-66
2023/10/08 08:59:04;;;;;;;3.30;0.55;;;15.60;99.90;;;;;;5105197;28;20387;-66
2023/10/08 09:01:30;;;;;;;3.13;1.45;;;15.60;99.90;;;;;;5102355;27;20044;-66
2023/10/08 09:04:01;;;;;;;9.10;1.13;;;15.60;99.90;;;;;;5104742;28;20043;-66
2023/10/08 09:06:27;;;;;;;8.48;1.67;;;15.60;99.90;;;;;;5103620;28;20044;-66
2023/10/08 09:08:55;;;;;;;3.33;0.80;;;15.70;99.90;;;;;;5101819;28;20124;-66
2023/10/08 09:11:21;;;;;;;5.28;0.95;;;15.70;99.90;;;;;;5109186;27;20107;-66
2023/10/08 09:13:48;;;;;;;6.65;0.90;;;15.70;99.90;;;;;;5102934;27;20043;-67
2023/10/08 09:16:16;;;;;;;4.40;0.98;;;15.80;99.90;;;;;;5102303;27;20042;-66
2023/10/08 09:18:46;;;;;;;8.00;1.08;;;15.90;99.90;;;;;;5105540;28;20524;-66
2023/10/08 09:21:14;;;;;;;2.92;0.60;;;16.00;99.90;;;;;;5103683;27;20047;-66
2023/10/08 09:23:43;;;;;;;6.18;1.15;;;16.10;99.90;;;;;;5102995;28;20089;-66
2023/10/08 09:26:09;;;;;;;7.25;2.00;;;16.10;99.90;;;;;;5103127;28;20038;-66
2023/10/08 09:28:38;;;;;;;5.45;1.00;;;16.10;99.90;;;;;;5104686;27;20071;-66
2023/10/08 09:31:06;;;;;;;6.95;0.70;;;16.10;99.90;;;;;;5104675;27;20123;-66
2023/10/08 09:33:32;;;;;;;2.30;0.60;;;16.20;99.90;;;;;;5104528;27;20040;-66
2023/10/08 09:36:02;;;;;;;4.72;0.68;;;16.20;99.90;;;;;;5107282;27;20044;-67
2023/10/08 09:38:30;;;;;;;4.90;0.50;;;16.30;99.90;;;;;;5104355;27;20118;-66
2023/10/08 09:40:56;;;;;;;5.05;0.70;;;16.10;99.90;;;;;;5105835;27;20096;-66
2023/10/08 09:43:23;;;;;;;4.50;0.88;;;16.10;99.90;;;;;;5101981;27;20539;-66
2023/10/08 09:46:00;;;;;;;3.03;0.68;;;16.00;99.90;;;;;;5104218;28;20099;-66
2023/10/08 09:48:27;;;;;;;5.03;0.93;;;16.20;99.90;;;;;;5099789;27;20032;-66
2023/10/08 09:50:55;;;;;;;5.57;0.75;;;16.20;99.90;;;;;;5101109;27;20058;-66
2023/10/08 09:53:31;;;;;;;4.55;1.08;;;16.30;99.90;;;;;;5105120;27;20394;-66
2023/10/08 09:55:57;;;;;;;3.20;0.52;;;16.30;99.90;;;;;;5130625;27;20049;-67
2023/10/08 09:58:27;;;;;;;5.80;0.90;;;16.40;99.90;;;;;;5100026;28;20101;-67
2023/10/08 10:00:57;;;;;;;2.53;0.70;;;16.40;99.90;;;;;;5084003;28;20035;-67
2023/10/08 10:03:25;;;;;;;4.85;0.60;;;16.40;99.90;;;;;;5102684;28;20092;-67
2023/10/08 10:05:51;;;;;;;7.50;1.17;;;16.30;99.90;;;;;;5103750;28;20038;-67
2023/10/08 10:08:17;;;;;;;4.68;1.33;;;16.30;99.90;;;;;;5102572;28;20040;-67
2023/10/08 10:10:47;;;;;;;5.70;0.65;;;16.30;99.90;;;;;;5100734;28;20062;-67
2023/10/08 10:13:16;;;;;;;3.45;0.88;;;16.40;99.90;;;;;;5098855;28;20071;-67
2023/10/08 10:15:45;;;;;;;3.95;0.70;;;16.50;99.90;;;;;;5100582;28;20039;-67
2023/10/08 10:18:27;;;;;;;7.65;1.50;;;16.60;99.90;;;;;;5102162;28;20035;-67
2023/10/08 10:21:00;;;;;;;6.88;1.42;;;16.60;99.90;;;;;;5113673;27;20043;-67
2023/10/08 10:23:43;;;;;;;6.45;0.82;;;16.70;99.90;;;;;;5083169;28;20043;-67
2023/10/08 10:26:30;;;;;;;6.05;1.13;;;16.90;99.90;;;;;;5099256;28;20043;-67
2023/10/08 10:29:09;;;;;;;8.65;1.30;;;17.10;99.90;;;;;;5099250;28;20048;-66
2023/10/08 10:31:35;;;;;;;5.45;0.70;;;17.00;99.90;;;;;;5131475;27;20048;-66
2023/10/08 10:34:09;;;;;;;6.88;1.20;;;17.00;99.90;;;;;;5133872;27;20402;-67
2023/10/08 10:36:36;;;;;;;4.50;0.90;;;16.90;99.90;;;;;;5102896;28;20157;-67
2023/10/08 10:39:15;;;;;;;4.18;1.10;;;16.90;99.90;;;;;;5098767;28;20044;-67
2023/10/08 10:41:48;;;;;;;10.27;1.95;;;16.80;99.90;;;;;;5100718;28;20050;-66
2023/10/08 10:44:15;;;;;;;6.50;1.83;;;16.90;99.90;;;;;;5131309;27;20039;-66
2023/10/08 10:46:42;;;;;;;4.05;1.08;;;16.80;99.90;;;;;;5106202;28;20126;-66
2023/10/08 10:49:18;;;;;;;5.70;1.23;;;16.80;99.90;;;;;;5116673;27;20580;-66
2023/10/08 10:51:46;;;;;;;4.47;1.48;;;17.00;99.90;;;;;;5104172;28;20045;-67
2023/10/08 10:54:19;;;;;;;5.78;0.95;;;17.20;99.90;;;;;;5102362;28;20134;-67
2023/10/08 10:56:47;;;;;;;4.50;1.10;;;17.40;99.90;;;;;;5102647;28;20040;-67
2023/10/08 10:59:19;;;;;;;4.00;1.08;;;17.60;99.90;;;;;;5100192;27;20437;-67
2023/10/08 11:01:48;;;;;;;6.72;0.40;;;17.70;99.90;;;;;;5102309;28;20532;-66
2023/10/08 11:04:17;;;;;;;4.43;1.02;;;17.80;99.90;;;;;;5103518;28;20047;-67
2023/10/08 11:06:44;;;;;;;4.30;0.98;;;17.90;99.90;;;;;;5101550;28;20494;-67
2023/10/08 11:09:15;;;;;;;2.40;0.57;;;18.00;99.90;;;;;;5103745;28;20057;-67
2023/10/08 11:11:44;;;;;;;3.97;0.70;;;18.00;99.90;;;;;;5099791;28;20040;-67
2023/10/08 11:14:18;;;;;;;3.75;0.60;;;18.20;99.90;;;;;;5104069;28;20411;-67
2023/10/08 11:16:47;;;;;;;4.33;0.90;;;18.30;99.90;;;;;;5130858;27;20043;-67
2023/10/08 11:19:15;;;;;;;6.45;1.10;;;18.30;99.90;;;;;;5097426;28;20329;-67
2023/10/08 11:21:53;;;;;;;6.10;0.65;;;18.30;99.90;;;;;;5104583;28;20472;-67
2023/10/08 11:24:33;;;;;;;2.83;0.95;;;18.20;99.90;;;;;;5132294;27;20045;-67
2023/10/08 11:27:17;;;;;;;4.15;1.00;;;18.10;99.90;;;;;;5102716;28;20161;-67
2023/10/08 11:29:56;;;;;;;4.65;1.02;;;18.00;99.90;;;;;;5103218;28;20130;-67
2023/10/08 11:32:25;;;;;;;3.20;1.08;;;17.90;99.90;;;;;;5099449;27;20043;-67
2023/10/08 11:35:15;;;;;;;4.97;0.80;;;17.90;99.90;;;;;;5104332;27;20109;-67
2023/10/08 11:37:47;;;;;;;6.18;0.98;;;17.80;99.90;;;;;;5103380;28;20127;-67
2023/10/08 11:40:28;;;;;;;4.53;1.00;;;17.80;99.90;;;;;;5105149;27;20130;-67
2023/10/08 11:42:56;;;;;;;4.18;1.02;;;17.80;99.90;;;;;;5103759;28;20044;-67
2023/10/08 11:45:26;;;;;;;3.20;0.70;;;18.00;99.90;;;;;;5134306;27;20044;-67
2023/10/08 11:47:55;;;;;;;4.18;0.93;;;18.20;99.90;;;;;;5108518;27;20093;-67
2023/10/08 11:50:30;;;;;;;3.75;1.13;;;18.40;99.90;;;;;;5109864;27;20532;-67
2023/10/08 11:53:05;;;;;;;6.82;0.93;;;18.70;99.90;;;;;;5108011;27;20038;-67
2023/10/08 11:55:42;;;;;;;7.05;0.85;;;18.70;99.90;;;;;;5136638;27;20092;-67
2023/10/08 11:58:11;;;;;;;4.35;0.90;;;18.90;99.90;;;;;;5106970;27;20042;-67
2023/10/08 12:00:45;;;;;;;6.15;0.95;;;19.10;99.90;;;;;;5109282;27;20057;-67
2023/10/08 12:03:12;;;;;;;7.75;1.25;;;19.10;99.90;;;;;;5107669;27;20046;-67
2023/10/08 12:05:47;;;;;;;5.53;0.85;;;19.00;99.90;;;;;;5101188;27;20059;-67
2023/10/08 12:08:16;;;;;;;6.88;1.27;;;19.10;99.90;;;;;;5108076;27;20127;-67
2023/10/08 12:10:45;;;;;;;4.78;1.10;;;19.00;99.90;;;;;;5102648;27;20043;-67
2023/10/08 12:13:12;;;;;;;5.28;1.35;;;19.00;99.90;;;;;;5104423;28;20469;-67
2023/10/08 12:15:38;;;;;;;7.07;0.85;;;18.80;99.90;;;;;;5102993;28;20040;-67
2023/10/08 12:20:49;;;;;;;6.77;1.67;;;18.70;99.90;;;;;;5101508;28;20039;-67
2023/10/08 12:23:28;;;;;;;6.93;0.95;;;18.70;99.90;;;;;;5102962;27;20296;-67
2023/10/08 12:25:55;;;;;;;4.90;0.80;;;18.70;99.90;;;;;;5101646;28;20064;-67
2023/10/08 12:28:25;;;;;;;6.30;1.55;;;18.70;99.90;;;;;;5102986;28;20039;-67
2023/10/08 12:30:55;;;;;;;4.68;0.93;;;18.70;99.90;;;;;;5104378;28;20036;-67
2023/10/08 12:33:24;;;;;;;4.63;0.77;;;18.60;99.90;;;;;;5104260;28;20048;-67
2023/10/08 12:35:53;;;;;;;4.60;0.90;;;18.60;99.90;;;;;;5105324;27;20118;-67
2023/10/08 12:38:22;;;;;;;5.32;0.80;;;18.50;99.90;;;;;;5136499;27;20083;-67
2023/10/08 12:40:54;;;;;;;4.38;1.10;;;18.50;99.90;;;;;;5100316;28;20425;-67
2023/10/08 12:43:20;;;;;;;7.93;1.20;;;18.60;99.90;;;;;;5104729;27;20545;-67
2023/10/08 12:45:52;;;;;;;5.80;1.00;;;18.70;99.90;;;;;;5105927;27;20071;-67
2023/10/08 12:48:22;;;;;;;5.68;0.95;;;18.80;99.90;;;;;;5103041;27;20051;-67
2023/10/08 12:50:56;;;;;;;4.82;0.70;;;18.80;99.90;;;;;;5105196;27;20092;-67
2023/10/08 12:53:26;;;;;;;3.43;0.80;;;18.90;99.90;;;;;;5103131;27;20496;-67
2023/10/08 12:55:57;;;;;;;4.45;1.10;;;19.00;99.90;;;;;;5102591;27;20138;-67
2023/10/08 12:58:25;;;;;;;5.97;1.20;;;19.00;99.90;;;;;;5108870;27;20082;-67
2023/10/08 13:00:57;;;;;;;2.90;0.70;;;19.00;99.90;;;;;;5102787;27;20054;-67
2023/10/08 13:03:30;;;;;;;8.40;1.52;;;18.90;99.90;;;;;;5103017;27;20051;-67
2023/10/08 13:06:03;;;;;;;6.57;1.25;;;18.80;99.90;;;;;;5104738;27;20444;-67
2023/10/08 13:08:35;;;;;;;3.90;1.23;;;18.70;99.90;;;;;;5103208;27;20897;-67
2023/10/08 13:11:01;;;;;;;2.78;0.70;;;18.70;99.90;;;;;;5102081;28;20138;-67
2023/10/08 13:13:28;;;;;;;2.55;0.77;;;18.60;99.90;;;;;;5099917;27;20028;-67
2023/10/08 13:15:56;;;;;;;6.57;1.30;;;18.70;99.90;;;;;;5099058;27;20039;-67
2023/10/08 13:18:25;;;;;;;5.97;1.40;;;18.80;99.90;;;;;;5103035;27;20063;-67
2023/10/08 13:20:51;;;;;;;5.07;0.98;;;18.80;99.90;;;;;;5101825;27;20047;-67
2023/10/08 13:23:20;;;;;;;6.25;1.38;;;18.90;99.90;;;;;;5091079;27;20030;-67
2023/10/08 13:25:53;;;;;;;6.03;1.17;;;18.90;99.90;;;;;;5101499;27;20092;-67
2023/10/08 13:28:22;;;;;;;8.73;1.63;;;19.00;99.90;;;;;;5104267;27;20032;-67
2023/10/08 13:30:52;;;;;;;4.47;0.80;;;18.80;99.90;;;;;;5104341;27;20138;-67
2023/10/08 13:33:24;;;;;;;4.50;0.65;;;18.80;99.90;;;;;;5103206;27;20074;-67
2023/10/08 13:35:51;;;;;;;6.50;0.80;;;18.80;99.90;;;;;;5104730;27;20429;-67
2023/10/08 13:38:19;;;;;;;5.20;1.30;;;18.70;99.90;;;;;;5103496;28;20085;-67
2023/10/08 13:41:02;;;;;;;5.63;1.17;;;18.50;99.90;;;;;;5100299;27;20032;-67
2023/10/08 13:43:34;;;;;;;4.95;1.10;;;18.50;99.90;;;;;;5100514;27;20162;-67
2023/10/08 13:46:12;;;;;;;7.45;1.33;;;18.30;99.90;;;;;;5103771;28;20416;-67
2023/10/08 13:48:39;;;;;;;6.93;1.05;;;18.20;99.90;;;;;;5103213;28;20493;-67
2023/10/08 13:51:13;;;;;;;5.13;0.80;;;18.10;99.90;;;;;;5101510;28;20039;-67
2023/10/08 13:53:40;;;;;;;3.90;0.85;;;17.90;99.90;;;;;;5104647;28;20118;-67
2023/10/08 13:56:05;;;;;;;11.63;1.27;;;17.80;99.90;;;;;;5100151;28;20371;-67